Motte Rimrock Reserve, California Weather observations

Data are for 10 minute period ending at time listed.
 Day   Time   Solar   Ave.   Ave.  Ave.  Vector  Max.   Baro.   Total    
  of    of     Rad.   Air    Rel.  Wind   Wind   Wind  Press.  Precip.   
Year   Day            Temp.  Hum.  Speed  Dir.   Gust                    
2014   (PST)  Kw/m2    F      %     mph   deg.    mph    mb.     in.     
-------------------------------------------------------------------------
 239   18:30   0.01   82.2    30   14.8   309    19.4   948.9    0.00 
 239   18:40   0.01   81.7    31   14.6   310    19.6   949.0    0.00 
 239   18:50   0.00   81.3    31   13.6   310    17.8   949.0    0.00 
 239   19:00   0.00   81.0    31   15.3   311    18.4   949.1    0.00 
 239   19:10   0.00   80.5    32   14.7   312    18.2   949.3    0.00 
 239   19:20   0.00   80.0    32   13.2   318    17.1   949.5    0.00 
 239   19:30   0.00   79.6    33   13.8   317    18.0   949.7    0.00 
 239   19:40   0.00   79.2    33   13.6   310    17.8   949.8    0.00 
 239   19:50   0.00   78.9    33   14.0   306    17.6   949.8    0.00 
 239   20:00   0.00   78.5    33   13.7   307    18.0   949.8    0.00 
 239   20:10   0.00   78.1    34   12.4   311    16.6   949.9    0.00 
 239   20:20   0.00   77.8    34   11.3   313    13.8   950.1    0.00 
 239   20:30   0.00   77.6    34   10.5   314    13.0   950.2    0.00 
 239   20:40   0.00   77.5    34   10.3   309    12.6   950.2    0.00 
 239   20:50   0.00   77.3    35   10.4   310    13.1   950.3    0.00 
 239   21:00   0.00   77.6    35   10.9   304    13.6   950.3    0.00 
 239   21:10   0.00   77.5    34    9.4   299    12.2   950.3    0.00 
 239   21:20   0.00   77.2    35   10.6   299    13.6   950.3    0.00 
 239   21:30   0.00   77.2    35   11.3   300    13.8   950.4    0.00 
 239   21:40   0.00   77.0    35    8.0   296    11.9   950.5    0.00 
 239   21:50   0.00   76.6    35    7.2   299     9.6   950.5    0.00 
 239   22:00   0.00   76.5    36    5.9   306     8.7   950.5    0.00 
 239   22:10   0.00   76.1    36    5.2   316     7.3   950.5    0.00 
 239   22:20   0.00   75.3    37    4.2   317     6.4   950.6    0.00 
 239   22:30   0.00   75.1    37    2.0   330     4.1   950.7    0.00 
 239   22:40   0.00   74.9    37    2.6   290     4.4   950.7    0.00 
 239   22:50   0.00   74.2    38    3.5   274     4.3   950.7    0.00 
 239   23:00   0.00   74.4    38    4.5   291     5.8   950.7    0.00 
 239   23:10   0.00   74.4    38    6.0   306     7.6   950.7    0.00 
 239   23:20   0.00   74.1    38    7.6   320     8.9   950.7    0.00 
 239   23:30   0.00   74.2    37    9.2   324     9.9   950.6    0.00 
 239   23:40   0.00   74.2    37    8.6   328     9.2   950.6    0.00 
 239   23:50   0.00   73.8    38    9.1   327    10.6   950.6    0.00 
 240    0:00   0.00   73.8    38   10.0   327    10.4   950.6    0.00 
 240    0:10   0.00   73.7    38    9.4   330    10.3   950.6    0.00 
 240    0:20   0.00   73.3    39    7.8   329     9.3   950.6    0.00 
 240    0:30   0.00   72.2    40    7.3   322     7.6   950.6    0.00 
 240    0:40   0.00   72.2    40    6.4   318     7.3   950.6    0.00 
 240    0:50   0.00   72.6    39    6.3   320     6.8   950.6    0.00 
 240    1:00   0.00   73.1    38    5.1   325     5.9   950.6    0.00 
 240    1:10   0.00   73.3    38    4.8   322     5.1   950.5    0.00 
 240    1:20   0.00   73.1    38    4.8   324     5.2   950.4    0.00 
 240    1:30   0.00   73.4    37    4.4   332     4.8   950.4    0.00 
 240    1:40   0.00   73.8    35    3.7   334     4.5   950.3    0.00 
 240    1:50   0.00   73.8    34    3.5   360     5.3   950.3    0.00 
 240    2:00   0.00   74.5    33    5.0    22     5.8   950.2    0.00 
 240    2:10   0.00   74.0    33    4.7    23     5.4   950.2    0.00 
 240    2:20   0.00   73.8    34    3.9    20     4.7   950.1    0.00 
 240    2:30   0.00   72.5    36    1.4   104     2.7   950.1    0.00 
 240    2:40   0.00   71.7    38    0.3   139     1.3   950.0    0.00 
 240    2:50   0.00   72.0    37    0.8   136     2.0   950.0    0.00 
 240    3:00   0.00   71.9    38    1.6   176     2.0   949.9    0.00 
 240    3:10   0.00   72.4    37    2.2   193     2.6   949.8    0.00 
 240    3:20   0.00   72.7    37    3.0   218     3.6   949.8    0.00 
 240    3:30   0.00   72.1    38    1.8   226     2.5   949.8    0.00 
 240    3:40   0.00   72.2    38    1.8   223     2.5   949.7    0.00 
 240    3:50   0.00   72.3    38    0.9   224     1.3   949.7    0.00 
 240    4:00   0.00   72.6    37    1.4   207     2.0   949.7    0.00 
 240    4:10   0.00   73.0    36    1.3   198     2.6   949.7    0.00 
 240    4:20   0.00   73.8    38    2.1    68     3.1   949.7    0.00 
 240    4:30   0.00   74.3    39    1.5   113     2.5   949.7    0.00 
 240    4:40   0.00   73.5    39    2.3   208     3.1   949.8    0.00 
 240    4:50   0.00   73.0    37    2.1   212     2.9   949.8    0.00 
 240    5:00   0.00   73.1    37    3.1   204     3.8   949.8    0.00 
 240    5:10   0.00   73.3    37    3.0   207     4.0   949.9    0.00 
 240    5:20   0.00   73.0    38    3.8   214     4.4   950.0    0.00 
 240    5:30   0.00   73.0    38    3.4   219     4.3   950.0    0.00 
 240    5:40   0.01   72.7    39    3.1   199     4.3   950.1    0.00 
 240    5:50   0.04   73.6    38    3.5   211     4.3   950.1    0.00 
 240    6:00   0.06   73.5    39    3.1   168     4.7   950.0    0.00 
 240    6:10   0.09   72.9    41    3.6    94     5.5   950.1    0.00 
 240    6:20   0.12   72.3    43    4.1    70     5.0   950.1    0.00 
 240    6:30   0.16   72.6    43    4.1    58     5.0   950.1    0.00 
 240    6:40   0.19   73.7    41    3.2    57     4.7   950.1    0.00 
 240    6:50   0.23   75.0    39    3.1    72     4.2   950.2    0.00 
 240    7:00   0.26   76.4    37    2.6    89     3.9   950.3    0.00 
 240    7:10   0.30   77.3    36    2.3    88     3.4   950.3    0.00 
 240    7:20   0.34   78.4    34    1.6   123     2.7   950.2    0.00 
 240    7:30   0.38   78.9    34    1.7   156     2.9   950.1    0.00 
 240    7:40   0.41   79.9    33    1.6    88     3.7   950.0    0.00 
 240    7:50   0.45   80.8    32    1.9   114     3.4   950.0    0.00 
 240    8:00   0.48   81.9    31    2.6   105     4.4   950.0    0.00 
 240    8:10   0.52   82.6    30    1.7   111     3.3   949.9    0.00 
 240    8:20   0.55   83.2    29    1.6   169     4.1   949.8    0.00 
 240    8:30   0.58   83.9    28    2.4   161     4.9   949.8    0.00 
 240    8:40   0.61   84.5    28    2.9   150     5.3   949.8    0.00 
 240    8:50   0.64   85.2    27    2.2   189     6.2   949.7    0.00 
 240    9:00   0.67   85.2    27    3.5   216     5.7   949.6    0.00 
 240    9:10   0.70   85.2    27    3.4   238     5.8   949.5    0.00 
 240    9:20   0.73   87.4    25    3.0   270     7.4   949.5    0.00 
 240    9:30   0.76   87.4    25    2.9   236     6.8   949.4    0.00 
 240    9:40   0.78   87.6    25    2.5   255     5.6   949.3    0.00 
 240    9:50   0.80   90.1    23    1.7    60     4.5   949.2    0.00 
 240   10:00   0.82   89.5    24    3.3    67     7.7   949.1    0.00 
 240   10:10   0.84   89.9    23    2.8   330     8.3   949.0    0.00 
 240   10:20   0.86   92.2    21    3.7   334     8.4   948.9    0.00 
 240   10:30   0.88   92.1    19    5.4   320    13.4   948.9    0.00 
 240   10:40   0.89   92.4    19    8.4   301    14.1   948.8    0.00 
 240   10:50   0.91   92.8    19    9.9   307    15.9   948.6    0.00 
 240   11:00   0.92   93.3    17   11.5   309    15.2   948.4    0.00 
 240   11:10   0.93   93.8    16    9.4   292    14.6   948.4    0.00 
 240   11:20   0.93   94.0    18    9.5   297    14.6   948.3    0.00 
 240   11:30   0.94   93.9    17   10.2   290    15.8   948.1    0.00 
 240   11:40   0.95   94.9    16   10.1   298    15.4   948.1    0.00 
 240   11:50   0.95   95.3    15    9.8   284    18.4   948.0    0.00 
 240   12:00   0.95   95.5    16   11.3   291    15.9   947.8    0.00 
 240   12:10   0.95   95.2    15   11.8   294    16.8   947.7    0.00 
 240   12:20   0.95   96.2    15   11.2   292    15.9   947.6    0.00 
 240   12:30   0.94   96.1    16   12.2   296    19.8   947.4    0.00 
 240   12:40   0.93   96.4    16   14.8   309    21.5   947.3    0.00 
 240   12:50   0.93   96.2    16   15.6   309    21.5   947.2    0.00 
 240   13:00   0.92   96.1    15   15.5   306    21.4   947.0    0.00 
 240   13:10   0.91   96.4    15   14.0   296    20.5   947.0    0.00 
 240   13:20   0.88   96.3    15   14.8   298    22.1   946.9    0.00 
 240   13:30   0.86   96.1    15   14.7   296    22.4   946.7    0.00 
 240   13:40   0.86   97.1    15   15.2   295    20.5   946.6    0.00 
 240   13:50   0.84   96.2    15   17.0   300    23.5   946.5    0.00 
 240   14:00   0.82   95.9    16   16.1   294    20.8   946.4    0.00 
 240   14:10   0.80   96.0    16   17.0   294    23.8   946.3    0.00 
 240   14:20   0.77   95.6    17   16.6   300    23.4   946.2    0.00 
 240   14:30   0.74   94.9    17   18.9   302    24.6   946.1    0.00 
 240   14:40   0.71   94.7    17   18.6   307    24.3   946.0    0.00 
 240   14:50   0.68   94.4    18   19.1   300    26.5   945.9    0.00 
 240   15:00   0.65   94.5    18   18.1   305    24.4   945.9    0.00 
 240   15:10   0.62   94.0    18   20.0   304    25.7   945.7    0.00 
 240   15:20   0.59   94.0    19   19.5   307    27.0   945.6    0.00 
 240   15:30   0.56   93.1    20   21.6   307    28.4   945.5    0.00 
 240   15:40   0.53   92.5    20   22.9   310    29.5   945.4    0.00 
 240   15:50   0.50   91.9    21   23.5   310    28.5   945.4    0.00 
 240   16:00   0.46   91.6    21   24.0   310    30.7   945.3    0.00 
 240   16:10   0.42   91.3    22   22.9   304    30.8   945.3    0.00 
 240   16:20   0.39   91.3    22   22.6   309    30.2   945.3    0.00 
 240   16:30   0.35   90.7    22   22.0   305    29.1   945.3    0.00 
 240   16:40   0.32   90.4    22   21.7   300    28.8   945.2    0.00 
 240   16:50   0.28   89.9    22   20.5   305    27.1   945.3    0.00 
 240   17:00   0.24   90.0    21   19.6   297    25.5   945.3    0.00 
 240   17:10   0.21   89.4    21   19.1   299    24.6   945.3    0.00 
 240   17:20   0.17   89.3    21   15.9   300    22.1   945.4    0.00 
 240   17:30   0.14   88.6    22   15.9   301    21.0   945.5    0.00 
 240   17:40   0.11   88.3    22   13.8   299    18.9   945.6    0.00 
 240   17:50   0.08   87.8    22   10.9   308    15.2   945.7    0.00 
 240   18:00   0.05   87.1    22    7.9   323    14.4   945.8    0.00 
 240   18:10   0.03   86.4    23    5.2   346     8.9   946.0    0.00 
 240   18:20   0.01   85.2    24    4.7   343     7.7   946.2    0.00 

Return to Motte Rimrock Reserve graphs page.


Western Regional Climate Center,wrcc@dri.edu